Terminal Aerodrome Forecast
Issued by NWS

Home | Current Version | Previous Version | Text Only | Print | Product List | Glossary Off
Versions: 1 2 3 4 5 6 7 8 9 10 11 12 13 14 15 16 17 18

000
FTUS42 KMHX 290428 AAB
TAFISO
TAF AMD
KISO 290428Z 2904/2924 00000KT 1/2SM FG VV003
     FM291100 02006KT 4SM BR BKN007
     FM291500 03009KT P6SM BKN015
     FM291800 03008KT P6SM SCT025
      AMD LTD TO CLD VIS AND WIND=

USA.gov is the U.S. government's official web portal to all federal, state and local government web resources and services.